Terminal Aerodrome Forecast
Issued by NWS

Current Version | Previous Version | Graphics & Text | Print | Product List | Glossary On
Versions: 1 2 3 4 5 6 7 8 9 10 11 12 13 14 15 16 17 18 19 20 21 22 23 24 25 26 27 28 29 30 31 32 33
000
FTUS41 KRNK 261724
TAFLWB
TAF
KLWB 261724Z 2618/2718 27006KT P6SM VCTS BKN045CB OVC060
     FM270000 00000KT P6SM VCSH BKN100
     FM270900 00000KT 1/2SM FG BKN001 BKN050
     FM271100 00000KT 1/4SM FG OVC001
     FM271300 26005KT P6SM SCT015 OVC035=

USA.gov is the U.S. government's official web portal to all federal, state and local government web resources and services.